首页
METAR-TAF:

METAR-TAF

机场 :

阿巴丹, 伊朗

纬度: 30-22N, 经度: 048-15E, 海拔: 3米

当前天气观测

该预报发布于26分钟前的05:00 UTC
风速6节,风向西北
温度 13°C
湿度 100%
气压 1017 hPa
能見度: 0500

METAR: OIAA 080500Z 32006KT 0500 FG NSC VVV/// 13/13 Q1017

时间: 08:56 (05:26 UTC)

预报

该预报发布于5小时和56分钟前的23:30 UTC
预报有效从08日的 00点(UTC)到 09日的 06点(UTC)
风速8节,风向南转西南
能見度: 7000
少量云层高于3500英尺
散云层高于10000英尺
短暂存在
从 08日的 00点(UTC)到 08日的 05点(UTC)
能見度: 3000
少量云层高于3500英尺, 积雨云.
多云层高于10000英尺
轻雾
短暂存在
从 08日的 09点(UTC)到 08日的 14点(UTC)
风速8节,风向西
少量云层高于3500英尺, 积雨云.
散云层高于10000英尺
成为
从 08日的 19点(UTC)到 08日的 21点(UTC)
能見度: 4000
轻雾
成为
从 09日的 04点(UTC)到 09日的 06点(UTC)
能見度: 7000

TAF: OIAA 072330Z 0800/0906 20008KT 7000 FEW035 SCT100 TEMPO 0800/0805 3000 BR FEW035CB BKN100 TEMPO 0809/0814 27008KT FEW035CB SCT100 BECMG 0819/0821 4000 BR BECMG 0904/0906 7000

超过4000个机场的气象观测和天气预报(METAR&TAF报告)。

可查询的气象台以黄色和红色小点在地图上表示。

将鼠标移到小点上方,可查看气象台名称。

然后点击查看天气观测和预报。

如需切换地图:点击带黑十字的绿色按钮放大地图;点击带横线的绿色按钮缩小地图;或者点击绿色箭头查看邻近地区的地图。


METAR-TAF: